Time;durP1;ratioP1;P1;durP2;ratioP2;P2;SDS_P1;SDS_P2;PMS_P1;PMS_P2;Temp;Humidity;BMP_temperature;BMP_pressure;BME280_temperature;BME280_humidity;BME280_pressure;Samples;Min_cycle;Max_cycle;Signal;HPM_P1;HPM_P2
2023/06/10 00:00:07;;;;;;;3.97;3.58;;;;;;;;;;5087407;28;20760;-53
2023/06/10 00:02:34;;;;;;;4.13;3.72;;;;;;;;;;5085158;28;20376;-52
2023/06/10 00:05:00;;;;;;;4.78;3.65;;;;;;;;;;5083778;28;20349;-52
2023/06/10 00:07:27;;;;;;;8.52;4.50;;;;;;;;;;5085227;28;20258;-52
2023/06/10 00:09:55;;;;;;;10.05;4.28;;;;;;;;;;5077066;28;20329;-52
2023/06/10 00:12:22;;;;;;;7.28;4.65;;;;;;;;;;5081919;28;20310;-52
2023/06/10 00:14:51;;;;;;;6.63;4.18;;;;;;;;;;5065147;28;20322;-52
2023/06/10 00:17:18;;;;;;;5.07;3.97;;;;;;;;;;5074391;28;20287;-51
2023/06/10 00:19:46;;;;;;;5.32;4.05;;;;;;;;;;5083371;28;20904;-52
2023/06/10 00:22:14;;;;;;;7.05;4.32;;;;;;;;;;5079363;28;20800;-53
2023/06/10 00:24:41;;;;;;;8.25;4.80;;;;;;;;;;5082752;28;20230;-52
2023/06/10 00:27:08;;;;;;;9.15;5.25;;;;;;;;;;5078998;28;20803;-51
2023/06/10 00:29:36;;;;;;;7.68;4.28;;;;;;;;;;5081392;28;20235;-53
2023/06/10 00:32:03;;;;;;;4.00;3.65;;;;;;;;;;5083057;28;20246;-53
2023/06/10 00:34:29;;;;;;;11.25;4.90;;;;;;;;;;5070632;28;20338;-52
2023/06/10 00:36:56;;;;;;;6.78;4.20;;;;;;;;;;5071715;28;20259;-51
2023/06/10 00:39:23;;;;;;;8.13;5.13;;;;;;;;;;5075693;28;20648;-51
2023/06/10 00:41:50;;;;;;;6.25;4.03;;;;;;;;;;5075876;28;20250;-52
2023/06/10 00:44:16;;;;;;;7.95;4.78;;;;;;;;;;5080373;28;20229;-53
2023/06/10 00:46:45;;;;;;;7.70;4.78;;;;;;;;;;5071459;28;20326;-57
2023/06/10 00:49:11;;;;;;;4.60;4.18;;;;;;;;;;5075864;28;20599;-52
2023/06/10 00:51:39;;;;;;;7.60;4.20;;;;;;;;;;5076943;28;20234;-52
2023/06/10 00:54:06;;;;;;;6.95;4.28;;;;;;;;;;5077337;28;20246;-52
2023/06/10 00:56:34;;;;;;;7.65;4.53;;;;;;;;;;5082650;28;20833;-51
2023/06/10 00:59:01;;;;;;;4.88;4.28;;;;;;;;;;5080743;28;20230;-52
2023/06/10 01:01:27;;;;;;;3.83;3.47;;;;;;;;;;5083453;28;20279;-51
2023/06/10 01:03:58;;;;;;;7.00;4.90;;;;;;;;;;5078939;28;20673;-53
2023/06/10 01:06:31;;;;;;;7.60;3.85;;;;;;;;;;5084421;28;20233;-52
2023/06/10 01:09:00;;;;;;;8.73;4.60;;;;;;;;;;5078985;28;20230;-54
2023/06/10 01:11:41;;;;;;;9.00;4.60;;;;;;;;;;5077408;28;20222;-51
2023/06/10 01:14:08;;;;;;;7.18;4.13;;;;;;;;;;5077302;28;20277;-53
2023/06/10 01:16:35;;;;;;;6.90;4.07;;;;;;;;;;5081224;28;20288;-50
2023/06/10 01:19:03;;;;;;;6.80;4.18;;;;;;;;;;5081162;28;20692;-51
2023/06/10 01:21:32;;;;;;;8.07;4.10;;;;;;;;;;5081377;28;20231;-53
2023/06/10 01:23:58;;;;;;;6.82;4.30;;;;;;;;;;5084313;28;20276;-53
2023/06/10 01:26:27;;;;;;;7.22;4.15;;;;;;;;;;5073544;28;20234;-52
2023/06/10 01:28:56;;;;;;;8.32;4.13;;;;;;;;;;5081677;28;20234;-52
2023/06/10 01:31:33;;;;;;;8.40;4.40;;;;;;;;;;5076857;28;20230;-52
2023/06/10 01:34:02;;;;;;;8.32;3.83;;;;;;;;;;5079271;28;20253;-51
2023/06/10 01:36:29;;;;;;;8.05;4.78;;;;;;;;;;5074213;28;20235;-52
2023/06/10 01:38:57;;;;;;;4.35;3.83;;;;;;;;;;5079402;28;20245;-52
2023/06/10 01:41:24;;;;;;;5.82;3.80;;;;;;;;;;5078813;28;20218;-52
2023/06/10 01:43:51;;;;;;;7.15;3.97;;;;;;;;;;5074824;28;20246;-52
2023/06/10 01:46:37;;;;;;;5.53;3.95;;;;;;;;;;5065259;27;20590;-51
2023/06/10 01:49:03;;;;;;;7.70;4.93;;;;;;;;;;5023077;28;20259;-52
2023/06/10 01:51:31;;;;;;;6.53;4.68;;;;;;;;;;5012238;28;20236;-53
2023/06/10 01:53:58;;;;;;;6.68;4.05;;;;;;;;;;5023028;28;20282;-52
2023/06/10 01:56:24;;;;;;;6.32;4.32;;;;;;;;;;5036937;28;20231;-51
2023/06/10 01:58:51;;;;;;;9.05;4.50;;;;;;;;;;5037096;28;20250;-53
2023/06/10 02:01:18;;;;;;;9.77;4.53;;;;;;;;;;5035039;28;20278;-51
2023/06/10 02:03:46;;;;;;;6.50;4.22;;;;;;;;;;5038294;28;20263;-52
2023/06/10 02:06:12;;;;;;;4.88;3.95;;;;;;;;;;5032465;28;20232;-52
2023/06/10 02:08:39;;;;;;;6.15;4.20;;;;;;;;;;5030896;28;20263;-52
2023/06/10 02:11:06;;;;;;;7.40;5.25;;;;;;;;;;5042376;28;20224;-52
2023/06/10 02:13:33;;;;;;;6.18;4.05;;;;;;;;;;5039990;28;20238;-52
2023/06/10 02:16:00;;;;;;;4.78;3.83;;;;;;;;;;5042677;28;20227;-52
2023/06/10 02:18:27;;;;;;;4.90;4.15;;;;;;;;;;5045933;28;20248;-51
2023/06/10 02:20:55;;;;;;;6.57;3.90;;;;;;;;;;5034141;28;20240;-52
2023/06/10 02:23:22;;;;;;;7.05;4.10;;;;;;;;;;5029199;28;20228;-52
2023/06/10 02:25:49;;;;;;;4.38;3.58;;;;;;;;;;5028470;28;20240;-51
2023/06/10 02:28:16;;;;;;;9.27;4.00;;;;;;;;;;5031734;28;20232;-51
2023/06/10 02:30:43;;;;;;;7.18;4.10;;;;;;;;;;5030019;28;20269;-51
2023/06/10 02:33:10;;;;;;;7.05;5.00;;;;;;;;;;5031116;28;20228;-52
2023/06/10 02:35:37;;;;;;;6.82;4.47;;;;;;;;;;5015133;28;20293;-53
2023/06/10 02:38:05;;;;;;;5.10;4.18;;;;;;;;;;5035639;28;20236;-51
2023/06/10 02:40:32;;;;;;;5.22;4.07;;;;;;;;;;5032510;28;20228;-53
2023/06/10 02:42:59;;;;;;;7.55;4.32;;;;;;;;;;5031504;28;20242;-52
2023/06/10 02:45:25;;;;;;;7.00;4.40;;;;;;;;;;5039564;28;20817;-52
2023/06/10 02:47:55;;;;;;;4.65;3.90;;;;;;;;;;5038467;28;20279;-54
2023/06/10 02:50:22;;;;;;;7.47;3.60;;;;;;;;;;5034033;28;20293;-51
2023/06/10 02:52:49;;;;;;;8.70;4.53;;;;;;;;;;5032816;28;20279;-53
2023/06/10 02:55:17;;;;;;;6.85;4.20;;;;;;;;;;5030091;28;20224;-51
2023/06/10 02:57:44;;;;;;;5.43;3.72;;;;;;;;;;5024452;28;20286;-53
2023/06/10 03:00:13;;;;;;;8.13;4.68;;;;;;;;;;5016397;28;20232;-51
2023/06/10 03:02:41;;;;;;;7.95;4.45;;;;;;;;;;5023698;28;20237;-51
2023/06/10 03:05:09;;;;;;;7.72;4.60;;;;;;;;;;5018651;28;20232;-51
2023/06/10 03:07:36;;;;;;;9.07;5.43;;;;;;;;;;5020444;28;20228;-51
2023/06/10 03:10:03;;;;;;;6.80;4.05;;;;;;;;;;5018535;28;20674;-52
2023/06/10 03:12:31;;;;;;;9.88;5.43;;;;;;;;;;5016692;28;20343;-51
2023/06/10 03:14:58;;;;;;;5.03;4.32;;;;;;;;;;5012180;28;20241;-51
2023/06/10 03:17:25;;;;;;;7.38;4.80;;;;;;;;;;5026069;28;20260;-52
2023/06/10 03:19:51;;;;;;;8.38;4.35;;;;;;;;;;5024161;28;20865;-53
2023/06/10 03:22:18;;;;;;;8.82;5.15;;;;;;;;;;5022114;28;20229;-54
2023/06/10 03:24:46;;;;;;;7.18;4.80;;;;;;;;;;5023603;28;20224;-51
2023/06/10 03:27:14;;;;;;;10.02;4.95;;;;;;;;;;5019405;28;20327;-51
2023/06/10 03:29:42;;;;;;;7.57;4.78;;;;;;;;;;5024496;28;20625;-52
2023/06/10 03:32:09;;;;;;;12.15;4.65;;;;;;;;;;5008891;28;20237;-53
2023/06/10 03:34:36;;;;;;;7.63;4.38;;;;;;;;;;5005917;28;20284;-52
2023/06/10 03:37:03;;;;;;;6.35;4.55;;;;;;;;;;5022602;28;20232;-52
2023/06/10 03:39:30;;;;;;;12.60;5.40;;;;;;;;;;5025893;28;20734;-53
2023/06/10 03:41:57;;;;;;;6.28;4.82;;;;;;;;;;5023269;28;20256;-51
2023/06/10 03:44:25;;;;;;;7.88;4.53;;;;;;;;;;5026363;28;20231;-52
2023/06/10 03:46:53;;;;;;;10.75;5.35;;;;;;;;;;5027445;28;20232;-53
2023/06/10 03:49:20;;;;;;;8.93;4.40;;;;;;;;;;5023524;28;20245;-55
2023/06/10 03:51:46;;;;;;;8.35;4.95;;;;;;;;;;5022721;28;20252;-52
2023/06/10 03:54:13;;;;;;;10.13;4.78;;;;;;;;;;5022508;28;20321;-52
2023/06/10 03:56:40;;;;;;;7.18;5.80;;;;;;;;;;5019475;28;20256;-52
2023/06/10 03:59:06;;;;;;;6.18;5.28;;;;;;;;;;5024523;28;20728;-53
2023/06/10 04:01:33;;;;;;;7.85;4.43;;;;;;;;;;5007712;28;20295;-51
2023/06/10 04:04:01;;;;;;;7.30;4.80;;;;;;;;;;5023248;28;20229;-51
2023/06/10 04:06:28;;;;;;;6.20;5.60;;;;;;;;;;5008018;28;20708;-53
2023/06/10 04:08:56;;;;;;;6.28;4.90;;;;;;;;;;5007764;28;20237;-52
2023/06/10 04:11:23;;;;;;;9.18;5.30;;;;;;;;;;5005603;28;20225;-51
2023/06/10 04:13:50;;;;;;;8.38;4.53;;;;;;;;;;5007929;28;20253;-52
2023/06/10 04:16:16;;;;;;;7.03;4.55;;;;;;;;;;5000901;28;20598;-52
2023/06/10 04:18:43;;;;;;;5.60;4.43;;;;;;;;;;5002983;28;20268;-52
2023/06/10 04:21:11;;;;;;;5.35;4.53;;;;;;;;;;5003149;28;20229;-52
2023/06/10 04:23:38;;;;;;;5.78;4.72;;;;;;;;;;5022916;28;20257;-51
2023/06/10 04:26:05;;;;;;;8.52;5.13;;;;;;;;;;5018148;28;20343;-51
2023/06/10 04:28:32;;;;;;;6.80;4.57;;;;;;;;;;5018545;28;20307;-50
2023/06/10 04:30:58;;;;;;;4.93;3.85;;;;;;;;;;5017153;28;20240;-50
2023/06/10 04:33:25;;;;;;;5.82;5.30;;;;;;;;;;5021465;28;20323;-52
2023/06/10 04:35:52;;;;;;;7.53;5.10;;;;;;;;;;5022824;28;20256;-51
2023/06/10 04:38:20;;;;;;;9.20;5.20;;;;;;;;;;5017897;28;20237;-53
2023/06/10 04:40:47;;;;;;;7.10;4.80;;;;;;;;;;5022650;28;20706;-50
2023/06/10 04:43:13;;;;;;;11.20;5.32;;;;;;;;;;5023375;28;20323;-55
2023/06/10 04:45:40;;;;;;;8.63;5.40;;;;;;;;;;5024001;28;20315;-53
2023/06/10 04:48:07;;;;;;;11.38;5.82;;;;;;;;;;5029279;28;20228;-51
2023/06/10 04:50:34;;;;;;;9.70;5.30;;;;;;;;;;5024881;28;20738;-54
2023/06/10 04:53:01;;;;;;;6.90;4.95;;;;;;;;;;5027799;28;20241;-53
2023/06/10 04:55:29;;;;;;;7.20;4.60;;;;;;;;;;5037327;28;20224;-52
2023/06/10 04:57:55;;;;;;;10.20;6.75;;;;;;;;;;5033252;28;20256;-52
2023/06/10 05:00:22;;;;;;;8.10;5.20;;;;;;;;;;5022522;28;20228;-52
2023/06/10 05:02:49;;;;;;;5.75;4.75;;;;;;;;;;5022134;28;20233;-50
2023/06/10 05:05:16;;;;;;;6.35;5.43;;;;;;;;;;5013678;28;20228;-51
2023/06/10 05:07:43;;;;;;;13.93;5.13;;;;;;;;;;5014722;28;20242;-52
2023/06/10 05:10:11;;;;;;;11.07;5.93;;;;;;;;;;5015804;28;20232;-53
2023/06/10 05:12:39;;;;;;;7.00;5.35;;;;;;;;;;5021627;28;20232;-52
2023/06/10 05:15:07;;;;;;;6.70;4.53;;;;;;;;;;5021957;28;20233;-51
2023/06/10 05:17:34;;;;;;;10.35;5.70;;;;;;;;;;5008944;28;20232;-51
2023/06/10 05:20:01;;;;;;;6.10;4.57;;;;;;;;;;5004918;28;20319;-50
2023/06/10 05:22:28;;;;;;;7.28;4.88;;;;;;;;;;5001634;28;20320;-53
2023/06/10 05:24:54;;;;;;;9.52;5.50;;;;;;;;;;5013735;28;20599;-51
2023/06/10 05:27:22;;;;;;;7.40;4.88;;;;;;;;;;5016540;28;20719;-53
2023/06/10 05:29:51;;;;;;;6.47;5.72;;;;;;;;;;5013879;28;20228;-52
2023/06/10 05:32:18;;;;;;;7.85;5.00;;;;;;;;;;5015836;28;20331;-52
2023/06/10 05:34:44;;;;;;;6.78;5.55;;;;;;;;;;5018009;28;20619;-53
2023/06/10 05:37:11;;;;;;;6.57;5.32;;;;;;;;;;5020593;28;20611;-52
2023/06/10 05:39:38;;;;;;;12.00;6.28;;;;;;;;;;5017102;28;20311;-52
2023/06/10 05:42:06;;;;;;;6.97;5.43;;;;;;;;;;5021875;28;20244;-52
2023/06/10 05:44:33;;;;;;;7.55;6.03;;;;;;;;;;5022780;28;20325;-51
2023/06/10 05:47:01;;;;;;;8.82;5.18;;;;;;;;;;5021274;28;20233;-52
2023/06/10 05:49:27;;;;;;;9.25;6.03;;;;;;;;;;5022458;28;20240;-53
2023/06/10 05:51:56;;;;;;;7.00;5.82;;;;;;;;;;5019969;28;20236;-52
2023/06/10 05:54:22;;;;;;;5.85;5.05;;;;;;;;;;5014902;28;20236;-53
2023/06/10 05:56:49;;;;;;;11.30;6.70;;;;;;;;;;5021931;28;20261;-52
2023/06/10 05:59:15;;;;;;;7.07;5.53;;;;;;;;;;5021721;28;20259;-57
2023/06/10 06:01:42;;;;;;;9.00;5.72;;;;;;;;;;5023575;28;20328;-51
2023/06/10 06:04:10;;;;;;;6.07;4.97;;;;;;;;;;5025739;28;20609;-51
2023/06/10 06:06:37;;;;;;;8.52;5.72;;;;;;;;;;5024839;28;20317;-52
2023/06/10 06:09:04;;;;;;;10.65;5.90;;;;;;;;;;5018773;28;20244;-53
2023/06/10 06:11:30;;;;;;;10.90;5.95;;;;;;;;;;5021714;28;21785;-51
2023/06/10 06:13:57;;;;;;;10.50;5.63;;;;;;;;;;5018765;28;20228;-52
2023/06/10 06:16:24;;;;;;;6.13;4.78;;;;;;;;;;5019408;28;20232;-53
2023/06/10 06:18:50;;;;;;;7.53;5.38;;;;;;;;;;5019581;28;20320;-52
2023/06/10 06:21:18;;;;;;;8.20;5.70;;;;;;;;;;5020801;28;20235;-51
2023/06/10 06:23:45;;;;;;;5.93;5.05;;;;;;;;;;5020712;28;20339;-50
2023/06/10 06:26:11;;;;;;;9.02;6.57;;;;;;;;;;5018867;28;20395;-52
2023/06/10 06:28:38;;;;;;;8.60;5.15;;;;;;;;;;5017915;28;20240;-52
2023/06/10 06:31:05;;;;;;;9.75;6.35;;;;;;;;;;5017304;28;20777;-51
2023/06/10 06:33:31;;;;;;;6.72;5.57;;;;;;;;;;5024378;28;20700;-52
2023/06/10 06:36:00;;;;;;;7.13;5.38;;;;;;;;;;5029078;28;20264;-52
2023/06/10 06:38:28;;;;;;;9.40;6.15;;;;;;;;;;5026314;28;20233;-51
2023/06/10 06:40:55;;;;;;;8.80;6.38;;;;;;;;;;5025888;28;20228;-52
2023/06/10 06:43:21;;;;;;;7.13;5.82;;;;;;;;;;5030718;28;20243;-50
2023/06/10 06:45:48;;;;;;;6.68;5.45;;;;;;;;;;5034246;28;20239;-52
2023/06/10 06:48:14;;;;;;;6.18;5.57;;;;;;;;;;5035364;28;20251;-51
2023/06/10 06:50:41;;;;;;;9.70;5.95;;;;;;;;;;5035707;28;20262;-51
2023/06/10 06:53:08;;;;;;;6.03;4.65;;;;;;;;;;5026791;28;20240;-51
2023/06/10 06:55:36;;;;;;;5.75;4.85;;;;;;;;;;5021217;28;20287;-51
2023/06/10 06:58:03;;;;;;;7.38;6.28;;;;;;;;;;5022995;28;20248;-51
2023/06/10 07:00:30;;;;;;;5.68;5.10;;;;;;;;;;5026236;28;20232;-52
2023/06/10 07:02:57;;;;;;;7.63;6.07;;;;;;;;;;5024003;28;20320;-54
2023/06/10 07:05:25;;;;;;;9.10;6.10;;;;;;;;;;5020800;28;20271;-52
2023/06/10 07:07:54;;;;;;;9.07;5.90;;;;;;;;;;5021937;28;20473;-52
2023/06/10 07:10:21;;;;;;;8.23;6.95;;;;;;;;;;5025025;28;20229;-52
2023/06/10 07:12:49;;;;;;;9.88;6.25;;;;;;;;;;5022023;28;20726;-51
2023/06/10 07:15:16;;;;;;;7.22;5.53;;;;;;;;;;5023830;28;20225;-51
2023/06/10 07:17:43;;;;;;;7.93;6.32;;;;;;;;;;5020578;28;20241;-53
2023/06/10 07:20:10;;;;;;;5.88;5.22;;;;;;;;;;5026373;28;20232;-53
2023/06/10 07:22:38;;;;;;;9.18;5.97;;;;;;;;;;5022103;28;20309;-52
2023/06/10 07:25:05;;;;;;;13.18;6.22;;;;;;;;;;5028953;28;20298;-53
2023/06/10 07:27:32;;;;;;;6.53;5.45;;;;;;;;;;5031811;28;20288;-52
2023/06/10 07:30:01;;;;;;;5.78;5.25;;;;;;;;;;5024708;28;20253;-51
2023/06/10 07:32:28;;;;;;;8.77;6.35;;;;;;;;;;5031732;28;20240;-53
2023/06/10 07:34:54;;;;;;;7.78;6.13;;;;;;;;;;5036587;28;20286;-52
2023/06/10 07:37:21;;;;;;;9.00;6.22;;;;;;;;;;5032046;28;20235;-52
2023/06/10 07:39:47;;;;;;;8.45;6.03;;;;;;;;;;5023955;28;20323;-52
2023/06/10 07:42:14;;;;;;;7.70;6.15;;;;;;;;;;5023954;28;20776;-51
2023/06/10 07:44:41;;;;;;;9.80;6.50;;;;;;;;;;5003326;28;20234;-52
2023/06/10 07:47:09;;;;;;;6.90;5.95;;;;;;;;;;5004295;28;20918;-51
2023/06/10 07:49:36;;;;;;;7.10;6.35;;;;;;;;;;5004580;28;20395;-52
2023/06/10 07:52:02;;;;;;;9.77;6.45;;;;;;;;;;5000654;28;20252;-51
2023/06/10 07:54:29;;;;;;;9.95;5.88;;;;;;;;;;5002920;28;20763;-52
2023/06/10 07:56:55;;;;;;;6.57;5.97;;;;;;;;;;5002798;28;21821;-52
2023/06/10 07:59:22;;;;;;;9.57;6.10;;;;;;;;;;4995202;28;20233;-52
2023/06/10 08:01:48;;;;;;;11.55;6.88;;;;;;;;;;4999085;28;20226;-53
2023/06/10 08:04:16;;;;;;;7.93;6.32;;;;;;;;;;5001965;28;20320;-50
2023/06/10 08:06:42;;;;;;;9.50;5.88;;;;;;;;;;5017424;28;20244;-51
2023/06/10 08:09:08;;;;;;;7.47;6.47;;;;;;;;;;5025008;28;20225;-52
2023/06/10 08:11:35;;;;;;;13.07;6.63;;;;;;;;;;5019375;28;20237;-53
2023/06/10 08:14:01;;;;;;;8.18;6.03;;;;;;;;;;5022389;28;20240;-51
2023/06/10 08:16:28;;;;;;;8.45;6.50;;;;;;;;;;5024634;28;20225;-51
2023/06/10 08:18:54;;;;;;;12.48;6.60;;;;;;;;;;5022026;28;20233;-54
2023/06/10 08:21:22;;;;;;;8.10;7.05;;;;;;;;;;5026743;28;20232;-52
2023/06/10 08:23:49;;;;;;;8.60;7.68;;;;;;;;;;5028589;28;20656;-57
2023/06/10 08:26:15;;;;;;;8.98;6.80;;;;;;;;;;5019978;28;20220;-56
2023/06/10 08:28:42;;;;;;;8.45;6.63;;;;;;;;;;5020430;28;20231;-51
2023/06/10 08:31:08;;;;;;;9.68;6.55;;;;;;;;;;5024144;28;20290;-53
2023/06/10 08:33:35;;;;;;;11.10;7.53;;;;;;;;;;5023406;28;20237;-51
2023/06/10 08:36:01;;;;;;;8.45;7.65;;;;;;;;;;5022189;28;20248;-53
2023/06/10 08:38:29;;;;;;;8.02;6.47;;;;;;;;;;5024045;28;20606;-52
2023/06/10 08:40:57;;;;;;;8.25;5.72;;;;;;;;;;5020692;28;20231;-52
2023/06/10 08:43:29;;;;;;;9.52;6.43;;;;;;;;;;5022959;28;20240;-52
2023/06/10 08:45:59;;;;;;;7.50;6.80;;;;;;;;;;5020775;28;20275;-51
2023/06/10 08:48:27;;;;;;;11.07;6.72;;;;;;;;;;5022361;28;20255;-51
2023/06/10 08:50:55;;;;;;;10.80;6.05;;;;;;;;;;5022917;28;20255;-52
2023/06/10 08:53:22;;;;;;;7.05;6.38;;;;;;;;;;5014783;28;20307;-51
2023/06/10 08:55:52;;;;;;;12.55;6.80;;;;;;;;;;5022975;28;20944;-51
2023/06/10 08:58:19;;;;;;;8.32;6.95;;;;;;;;;;5007248;28;20239;-53
2023/06/10 09:00:45;;;;;;;8.90;6.20;;;;;;;;;;5013868;28;20235;-51
2023/06/10 09:03:12;;;;;;;9.80;6.90;;;;;;;;;;5016838;28;20240;-51
2023/06/10 09:05:38;;;;;;;8.85;5.80;;;;;;;;;;5015198;28;20793;-52
2023/06/10 09:08:08;;;;;;;6.32;5.82;;;;;;;;;;5018288;28;20247;-52
2023/06/10 09:10:34;;;;;;;6.85;5.80;;;;;;;;;;5016024;28;20969;-52
2023/06/10 09:13:02;;;;;;;6.45;5.85;;;;;;;;;;5014483;28;20312;-52
2023/06/10 09:15:28;;;;;;;8.30;6.28;;;;;;;;;;5015928;28;20814;-52
2023/06/10 09:17:55;;;;;;;7.13;6.43;;;;;;;;;;5016169;28;20232;-51
2023/06/10 09:20:21;;;;;;;10.70;6.00;;;;;;;;;;5018017;28;20237;-53
2023/06/10 09:22:47;;;;;;;9.70;6.75;;;;;;;;;;5002819;28;20239;-52
2023/06/10 09:25:14;;;;;;;7.90;5.75;;;;;;;;;;5004562;28;20237;-51
2023/06/10 09:27:49;;;;;;;9.07;6.47;;;;;;;;;;5011207;28;20243;-52
2023/06/10 09:30:26;;;;;;;7.65;6.43;;;;;;;;;;5012995;28;20228;-52
2023/06/10 09:32:53;;;;;;;7.78;6.60;;;;;;;;;;5013935;28;20232;-53
2023/06/10 09:35:20;;;;;;;6.18;5.55;;;;;;;;;;5016163;28;20268;-51
2023/06/10 09:37:46;;;;;;;10.18;7.07;;;;;;;;;;5019201;28;20240;-53
2023/06/10 09:40:13;;;;;;;7.13;6.40;;;;;;;;;;5011491;28;20233;-51
2023/06/10 09:42:39;;;;;;;9.18;6.40;;;;;;;;;;5019589;28;20331;-53
2023/06/10 09:45:07;;;;;;;12.45;6.45;;;;;;;;;;5011844;28;20327;-52
2023/06/10 09:47:34;;;;;;;6.30;5.78;;;;;;;;;;5011874;28;20318;-52
2023/06/10 09:50:01;;;;;;;6.47;5.70;;;;;;;;;;5014374;28;20233;-52
2023/06/10 09:52:29;;;;;;;7.82;7.03;;;;;;;;;;5016951;28;20306;-50
2023/06/10 09:54:59;;;;;;;10.20;7.05;;;;;;;;;;5012207;28;20232;-52
2023/06/10 09:57:26;;;;;;;10.43;6.28;;;;;;;;;;5019536;28;20892;-52
2023/06/10 09:59:53;;;;;;;6.43;5.68;;;;;;;;;;5016115;28;20229;-51
2023/06/10 10:02:20;;;;;;;6.65;5.70;;;;;;;;;;5013852;28;20248;-52
2023/06/10 10:04:48;;;;;;;8.02;5.68;;;;;;;;;;5012663;28;20739;-52
2023/06/10 10:07:14;;;;;;;9.57;5.80;;;;;;;;;;5017921;28;20220;-51
2023/06/10 10:09:41;;;;;;;8.32;7.15;;;;;;;;;;5021992;28;20242;-52
2023/06/10 10:12:10;;;;;;;8.82;6.65;;;;;;;;;;5011965;28;20265;-51
2023/06/10 10:14:37;;;;;;;11.48;7.78;;;;;;;;;;5028559;28;20258;-54
2023/06/10 10:17:05;;;;;;;8.05;7.25;;;;;;;;;;5019295;28;20232;-52
2023/06/10 10:19:33;;;;;;;8.70;6.43;;;;;;;;;;5019636;28;20303;-51
2023/06/10 10:22:04;;;;;;;7.20;6.50;;;;;;;;;;5019723;28;20241;-54
2023/06/10 10:24:34;;;;;;;10.23;7.07;;;;;;;;;;5016963;28;20235;-52
2023/06/10 10:27:02;;;;;;;8.23;6.53;;;;;;;;;;5018168;28;20239;-53
2023/06/10 10:29:30;;;;;;;7.43;6.45;;;;;;;;;;5022098;28;20225;-52
2023/06/10 10:31:59;;;;;;;9.27;7.10;;;;;;;;;;5020781;28;20719;-51
2023/06/10 10:34:31;;;;;;;10.85;6.72;;;;;;;;;;5015565;28;20322;-51
2023/06/10 10:36:58;;;;;;;9.30;6.47;;;;;;;;;;5020532;28;20253;-54
2023/06/10 10:39:28;;;;;;;7.28;6.20;;;;;;;;;;5026909;28;20224;-53
2023/06/10 10:41:54;;;;;;;9.50;5.97;;;;;;;;;;5023977;28;20237;-53
2023/06/10 10:44:21;;;;;;;6.45;5.85;;;;;;;;;;5033071;28;20732;-53
2023/06/10 10:46:49;;;;;;;11.05;6.35;;;;;;;;;;5035620;28;20243;-51
2023/06/10 10:49:16;;;;;;;7.20;5.55;;;;;;;;;;5028554;28;20323;-52
2023/06/10 10:51:55;;;;;;;5.80;5.28;;;;;;;;;;5022496;28;20303;-52
2023/06/10 10:54:28;;;;;;;6.35;5.10;;;;;;;;;;5022721;28;20232;-53
2023/06/10 10:57:12;;;;;;;7.95;5.47;;;;;;;;;;5021535;28;20576;-51
2023/06/10 10:59:45;;;;;;;5.45;4.55;;;;;;;;;;5019952;28;20339;-53
2023/06/10 11:02:16;;;;;;;6.38;5.20;;;;;;;;;;5021771;28;20239;-51
2023/06/10 11:04:45;;;;;;;4.90;4.50;;;;;;;;;;5021800;28;20702;-50
2023/06/10 11:07:15;;;;;;;5.78;4.93;;;;;;;;;;5017495;28;20842;-52
2023/06/10 11:09:57;;;;;;;6.85;4.63;;;;;;;;;;5006750;28;20317;-52
2023/06/10 11:12:25;;;;;;;5.30;4.80;;;;;;;;;;5015046;28;20308;-52
2023/06/10 11:14:55;;;;;;;6.45;5.43;;;;;;;;;;5021883;28;20260;-52
2023/06/10 11:17:21;;;;;;;5.05;4.75;;;;;;;;;;5021231;28;20228;-54
2023/06/10 11:19:48;;;;;;;4.47;4.13;;;;;;;;;;5017789;28;20320;-52
2023/06/10 11:22:17;;;;;;;8.00;5.88;;;;;;;;;;5019701;28;20233;-51
2023/06/10 11:24:48;;;;;;;5.22;4.72;;;;;;;;;;5019091;28;20233;-51
2023/06/10 11:27:18;;;;;;;4.60;4.20;;;;;;;;;;5018577;28;20594;-52
2023/06/10 11:29:59;;;;;;;4.50;4.20;;;;;;;;;;5018494;28;20235;-52
2023/06/10 11:32:29;;;;;;;4.60;4.03;;;;;;;;;;5022623;28;20748;-51
2023/06/10 11:34:56;;;;;;;5.25;4.75;;;;;;;;;;5012253;28;20328;-52
2023/06/10 11:37:23;;;;;;;5.43;4.93;;;;;;;;;;5020029;28;20224;-52
2023/06/10 11:39:52;;;;;;;5.22;4.72;;;;;;;;;;5020203;28;20754;-54
2023/06/10 11:42:19;;;;;;;4.80;4.47;;;;;;;;;;5022304;28;20240;-52
2023/06/10 11:44:48;;;;;;;5.63;5.15;;;;;;;;;;5025925;28;20228;-51
2023/06/10 11:47:16;;;;;;;5.88;5.05;;;;;;;;;;5021087;28;20228;-52
2023/06/10 11:49:42;;;;;;;6.03;5.07;;;;;;;;;;5022800;28;20233;-53
2023/06/10 11:52:09;;;;;;;5.60;4.85;;;;;;;;;;5021107;28;20311;-52
2023/06/10 11:54:35;;;;;;;5.60;5.18;;;;;;;;;;5021049;28;20232;-52
2023/06/10 11:57:03;;;;;;;5.20;4.70;;;;;;;;;;5021993;28;20228;-50
2023/06/10 11:59:29;;;;;;;4.90;4.50;;;;;;;;;;5021686;28;20324;-52
2023/06/10 12:01:56;;;;;;;9.82;6.68;;;;;;;;;;5019704;28;20702;-51
2023/06/10 12:04:25;;;;;;;5.80;5.20;;;;;;;;;;5017522;28;20331;-53
2023/06/10 12:06:53;;;;;;;7.65;4.78;;;;;;;;;;5021796;28;20240;-52
2023/06/10 12:09:21;;;;;;;5.53;5.05;;;;;;;;;;5020322;28;20361;-51
2023/06/10 12:11:49;;;;;;;5.32;4.93;;;;;;;;;;5016310;28;20243;-53
2023/06/10 12:14:16;;;;;;;5.75;5.22;;;;;;;;;;5016011;28;20228;-51
2023/06/10 12:16:49;;;;;;;5.78;5.35;;;;;;;;;;5006637;28;20264;-54
2023/06/10 12:19:15;;;;;;;5.05;4.65;;;;;;;;;;5005271;28;20233;-52
2023/06/10 12:21:43;;;;;;;6.63;5.57;;;;;;;;;;5008898;28;20233;-52
2023/06/10 12:24:10;;;;;;;5.63;5.10;;;;;;;;;;5020603;28;20338;-51
2023/06/10 12:26:41;;;;;;;5.65;5.15;;;;;;;;;;5021901;28;20236;-52
2023/06/10 12:29:14;;;;;;;6.80;5.95;;;;;;;;;;5016460;28;20236;-51
2023/06/10 12:31:53;;;;;;;5.80;5.15;;;;;;;;;;5021800;28;20596;-54
2023/06/10 12:34:20;;;;;;;5.72;5.22;;;;;;;;;;5009760;28;20228;-53
2023/06/10 12:36:50;;;;;;;5.47;5.00;;;;;;;;;;5008791;28;20253;-52
2023/06/10 12:39:16;;;;;;;7.22;5.05;;;;;;;;;;5005056;28;20235;-50
2023/06/10 12:41:48;;;;;;;6.72;4.63;;;;;;;;;;5018960;28;20267;-53
2023/06/10 12:44:14;;;;;;;6.63;4.82;;;;;;;;;;5008591;28;20236;-51
2023/06/10 12:46:41;;;;;;;5.20;4.70;;;;;;;;;;5015050;28;20287;-53
2023/06/10 12:49:07;;;;;;;5.30;4.90;;;;;;;;;;5021550;28;20244;-53
2023/06/10 12:51:35;;;;;;;4.45;4.10;;;;;;;;;;5017451;28;20243;-57
2023/06/10 12:54:03;;;;;;;4.75;4.45;;;;;;;;;;5026486;28;20871;-51
2023/06/10 12:56:29;;;;;;;6.03;5.45;;;;;;;;;;5028046;28;20803;-53
2023/06/10 12:58:56;;;;;;;7.78;6.00;;;;;;;;;;5032728;28;20229;-60
2023/06/10 13:01:22;;;;;;;6.88;6.20;;;;;;;;;;5025417;28;20287;-56
2023/06/10 13:03:48;;;;;;;7.55;6.25;;;;;;;;;;5018294;28;20236;-53
2023/06/10 13:06:16;;;;;;;7.65;6.93;;;;;;;;;;5020090;28;20229;-50
2023/06/10 13:08:42;;;;;;;7.45;6.72;;;;;;;;;;5016599;28;20753;-52
2023/06/10 13:11:10;;;;;;;6.80;6.10;;;;;;;;;;5019135;28;20229;-51
2023/06/10 13:13:37;;;;;;;9.80;7.07;;;;;;;;;;5006289;28;20239;-53
2023/06/10 13:16:04;;;;;;;7.97;7.38;;;;;;;;;;5004403;28;20272;-52
2023/06/10 13:18:30;;;;;;;6.45;5.95;;;;;;;;;;5003511;28;20226;-51
2023/06/10 13:20:57;;;;;;;11.75;7.30;;;;;;;;;;5004046;28;20337;-52
2023/06/10 13:23:23;;;;;;;7.38;6.63;;;;;;;;;;4999146;28;20313;-52
2023/06/10 13:25:49;;;;;;;8.50;7.63;;;;;;;;;;5006671;28;20229;-52
2023/06/10 13:28:17;;;;;;;8.07;7.38;;;;;;;;;;5019872;28;20327;-52
2023/06/10 13:30:43;;;;;;;8.15;7.40;;;;;;;;;;5018126;28;20232;-53
2023/06/10 13:33:10;;;;;;;8.43;7.72;;;;;;;;;;5022210;28;20315;-51
2023/06/10 13:35:37;;;;;;;14.05;8.32;;;;;;;;;;5019235;28;20698;-51
2023/06/10 13:38:03;;;;;;;11.25;7.43;;;;;;;;;;5017159;28;21923;-51
2023/06/10 13:40:29;;;;;;;9.60;7.80;;;;;;;;;;5020232;28;20319;-51
2023/06/10 13:42:56;;;;;;;8.02;7.10;;;;;;;;;;5014600;28;20886;-51
2023/06/10 13:45:24;;;;;;;7.78;7.07;;;;;;;;;;5011659;28;20320;-53
2023/06/10 13:47:51;;;;;;;9.18;7.13;;;;;;;;;;5015525;28;20311;-52
2023/06/10 13:50:17;;;;;;;7.60;6.90;;;;;;;;;;5016161;28;20243;-52
2023/06/10 13:52:44;;;;;;;7.82;6.78;;;;;;;;;;5014943;28;20234;-52
2023/06/10 13:55:10;;;;;;;7.18;6.57;;;;;;;;;;5016806;28;20236;-52
2023/06/10 13:57:37;;;;;;;8.48;6.75;;;;;;;;;;5017019;28;20982;-51
2023/06/10 14:00:04;;;;;;;6.88;6.28;;;;;;;;;;5014611;28;20944;-52
2023/06/10 14:02:32;;;;;;;8.07;7.20;;;;;;;;;;5014507;28;20328;-53
2023/06/10 14:04:59;;;;;;;7.35;6.75;;;;;;;;;;5012255;28;20260;-52
2023/06/10 14:07:26;;;;;;;7.90;7.10;;;;;;;;;;5019766;28;20354;-52
2023/06/10 14:09:52;;;;;;;8.43;7.47;;;;;;;;;;5012793;28;20229;-52
2023/06/10 14:12:19;;;;;;;7.10;6.50;;;;;;;;;;5016849;28;20237;-53
2023/06/10 14:14:46;;;;;;;8.10;7.30;;;;;;;;;;5012806;28;20650;-51
2023/06/10 14:17:12;;;;;;;7.53;6.93;;;;;;;;;;5018624;28;20241;-51
2023/06/10 14:19:41;;;;;;;8.90;7.93;;;;;;;;;;5013351;28;20328;-51
2023/06/10 14:22:08;;;;;;;10.60;7.03;;;;;;;;;;5012141;28;20312;-53
2023/06/10 14:24:34;;;;;;;7.70;6.97;;;;;;;;;;5013857;28;20240;-51
2023/06/10 14:27:01;;;;;;;7.53;6.65;;;;;;;;;;5005985;28;20233;-53
2023/06/10 14:29:28;;;;;;;8.13;7.10;;;;;;;;;;5003130;28;20307;-53
2023/06/10 14:31:55;;;;;;;7.13;6.53;;;;;;;;;;5002169;28;20300;-56
2023/06/10 14:34:23;;;;;;;6.35;5.85;;;;;;;;;;5008908;28;20348;-51
2023/06/10 14:36:51;;;;;;;7.30;6.32;;;;;;;;;;5008176;28;20702;-52
2023/06/10 14:39:17;;;;;;;7.10;5.78;;;;;;;;;;5010575;28;20254;-52
2023/06/10 14:41:43;;;;;;;6.40;5.85;;;;;;;;;;5019442;28;20894;-54